Hauptseite
METAR-TAF:

METAR-TAF

Flughäfen :

Ankara Güvercinlik, Türkei

Breite: 39-56N, Länge: 032-45E, Höhe: 819 m

METAR: fehlend

Zeit: 16:47 (13:47 UTC)

Prognose

Neuester Wetterbericht von vor 3 Stunden und 7 Minuten, um 10:40 UTC
Gültige Prognose vom 21 um 12 UTC bis 21 um 21 UTC
Wind 8 kt aus Ost/Nordost
Sichtweite 10 km oder mehr
Aufgelockert bewölkt in der Höhe von 4000 ft
Übergehend zu
vom 21 um 16 UTC bis 21 um 18 UTC
Sichtweite 10 km oder mehr
keine Wolken unter 1500 m und keine Kumulonimbus oder Gewitterwolken

TAF: LTAB 211040Z 2112/2121 06008KT 9999 SCT040 BECMG 2116/2118 CAVOK

Wetterbeobachtungen und Prognosen von mehr als 4000 Flughäfen (METAR und TAF Bericht).

Die verfügbaren Stationen werden durch gelbe und rote Markierungen auf der Karte dargestellt.

Führen Sie die Maus auf sie, um den Namen der Station zu sehen.

Darauf klicken, um die Beobachtung von Wetterbeobachtungen und Prognosen zu sehen.

Um die Karte zu ändern : klicken Sie auf den grünen Tasten mit einem schwarzen Kreuz Zum Vergrößern, auf den grünen Button mit einem Gedankenstrich zu verkleinern, oder auf die grünen Pfeile für benachbarte Karten.


METAR-TAF: